sensor_id;sensor_type;location;lat;lon;timestamp;pressure;altitude;pressure_sealevel;temperature;humidity
15932;BME280;8065;49.520;11.284;2023-04-19T00:01:33;98116.13;;;12.30;77.37
15932;BME280;8065;49.520;11.284;2023-04-19T00:04:01;98118.63;;;12.35;77.28
15932;BME280;8065;49.520;11.284;2023-04-19T00:06:28;98113.31;;;12.35;77.24
15932;BME280;8065;49.520;11.284;2023-04-19T00:08:54;98115.81;;;12.31;77.23
15932;BME280;8065;49.520;11.284;2023-04-19T00:11:21;98107.34;;;12.29;77.41
15932;BME280;8065;49.520;11.284;2023-04-19T00:13:47;98110.94;;;12.25;77.33
15932;BME280;8065;49.520;11.284;2023-04-19T00:16:15;98104.34;;;12.13;77.65
15932;BME280;8065;49.520;11.284;2023-04-19T00:18:41;98112.03;;;12.15;77.79
15932;BME280;8065;49.520;11.284;2023-04-19T00:21:09;98115.66;;;12.10;77.85
15932;BME280;8065;49.520;11.284;2023-04-19T00:23:35;98110.66;;;12.09;78.06
15932;BME280;8065;49.520;11.284;2023-04-19T00:26:02;98107.50;;;11.98;78.19
15932;BME280;8065;49.520;11.284;2023-04-19T00:28:29;98105.16;;;11.97;78.31
15932;BME280;8065;49.520;11.284;2023-04-19T00:30:55;98111.88;;;11.94;78.17
15932;BME280;8065;49.520;11.284;2023-04-19T00:33:22;98110.22;;;11.76;78.85
15932;BME280;8065;49.520;11.284;2023-04-19T00:35:48;98116.63;;;11.66;79.17
15932;BME280;8065;49.520;11.284;2023-04-19T00:38:16;98111.31;;;11.66;79.30
15932;BME280;8065;49.520;11.284;2023-04-19T00:40:42;98108.00;;;11.61;79.65
15932;BME280;8065;49.520;11.284;2023-04-19T00:43:09;98094.53;;;11.66;79.70
15932;BME280;8065;49.520;11.284;2023-04-19T00:45:35;98093.59;;;11.62;79.85
15932;BME280;8065;49.520;11.284;2023-04-19T00:48:02;98091.44;;;11.72;79.61
15932;BME280;8065;49.520;11.284;2023-04-19T00:50:29;98091.59;;;11.76;79.56
15932;BME280;8065;49.520;11.284;2023-04-19T00:52:56;98095.25;;;11.80;79.15
15932;BME280;8065;49.520;11.284;2023-04-19T00:55:24;98096.13;;;11.75;79.43
15932;BME280;8065;49.520;11.284;2023-04-19T00:57:50;98094.25;;;11.76;79.39
15932;BME280;8065;49.520;11.284;2023-04-19T01:00:17;98087.72;;;11.82;79.29
15932;BME280;8065;49.520;11.284;2023-04-19T01:02:44;98088.50;;;11.82;79.57
15932;BME280;8065;49.520;11.284;2023-04-19T01:05:10;98085.22;;;11.86;79.37
15932;BME280;8065;49.520;11.284;2023-04-19T01:07:37;98078.66;;;11.83;79.85
15932;BME280;8065;49.520;11.284;2023-04-19T01:10:04;98075.03;;;11.79;79.65
15932;BME280;8065;49.520;11.284;2023-04-19T01:12:32;98076.66;;;11.58;81.32
15932;BME280;8065;49.520;11.284;2023-04-19T01:14:59;98082.00;;;11.58;81.11
15932;BME280;8065;49.520;11.284;2023-04-19T01:17:26;98082.47;;;11.60;80.88
15932;BME280;8065;49.520;11.284;2023-04-19T01:19:58;98072.44;;;11.57;81.03
15932;BME280;8065;49.520;11.284;2023-04-19T01:22:26;98075.56;;;11.59;81.03
15932;BME280;8065;49.520;11.284;2023-04-19T01:24:54;98076.66;;;11.58;81.19
15932;BME280;8065;49.520;11.284;2023-04-19T01:27:21;98077.28;;;11.55;81.16
15932;BME280;8065;49.520;11.284;2023-04-19T01:29:48;98069.91;;;11.52;80.94
15932;BME280;8065;49.520;11.284;2023-04-19T01:32:14;98078.78;;;11.38;81.32
15932;BME280;8065;49.520;11.284;2023-04-19T01:34:41;98065.22;;;11.48;81.13
15932;BME280;8065;49.520;11.284;2023-04-19T01:37:07;98062.88;;;11.56;80.99
15932;BME280;8065;49.520;11.284;2023-04-19T01:39:35;98056.31;;;11.62;80.42
15932;BME280;8065;49.520;11.284;2023-04-19T01:42:02;98057.91;;;11.63;80.17
15932;BME280;8065;49.520;11.284;2023-04-19T01:44:29;98056.50;;;11.65;80.09
15932;BME280;8065;49.520;11.284;2023-04-19T01:46:55;98058.69;;;11.63;79.99
15932;BME280;8065;49.520;11.284;2023-04-19T01:49:22;98052.56;;;11.63;79.78
15932;BME280;8065;49.520;11.284;2023-04-19T01:51:48;98051.28;;;11.52;79.96
15932;BME280;8065;49.520;11.284;2023-04-19T01:54:14;98051.59;;;11.50;79.88
15932;BME280;8065;49.520;11.284;2023-04-19T01:56:42;98055.81;;;11.51;79.87
15932;BME280;8065;49.520;11.284;2023-04-19T01:59:09;98052.03;;;11.43;79.99
15932;BME280;8065;49.520;11.284;2023-04-19T02:01:35;98054.09;;;11.46;79.95
15932;BME280;8065;49.520;11.284;2023-04-19T02:04:02;98057.38;;;11.43;79.82
15932;BME280;8065;49.520;11.284;2023-04-19T02:06:28;98047.47;;;11.35;79.71
15932;BME280;8065;49.520;11.284;2023-04-19T02:08:55;98052.31;;;11.33;79.98
15932;BME280;8065;49.520;11.284;2023-04-19T02:11:22;98044.97;;;11.30;79.94
15932;BME280;8065;49.520;11.284;2023-04-19T02:13:50;98041.69;;;11.25;80.03
15932;BME280;8065;49.520;11.284;2023-04-19T02:16:16;98040.38;;;11.13;80.42
15932;BME280;8065;49.520;11.284;2023-04-19T02:18:43;98033.94;;;11.06;80.24
15932;BME280;8065;49.520;11.284;2023-04-19T02:21:11;98034.38;;;10.99;80.75
15932;BME280;8065;49.520;11.284;2023-04-19T02:23:37;98032.81;;;10.98;80.58
15932;BME280;8065;49.520;11.284;2023-04-19T02:26:04;98026.09;;;11.01;80.12
15932;BME280;8065;49.520;11.284;2023-04-19T02:28:31;98027.94;;;10.92;80.75
15932;BME280;8065;49.520;11.284;2023-04-19T02:31:03;98029.13;;;10.55;81.02
15932;BME280;8065;49.520;11.284;2023-04-19T02:33:30;98029.56;;;10.48;81.96
15932;BME280;8065;49.520;11.284;2023-04-19T02:35:57;98027.28;;;10.33;82.05
15932;BME280;8065;49.520;11.284;2023-04-19T02:38:23;98020.16;;;10.20;82.03
15932;BME280;8065;49.520;11.284;2023-04-19T02:40:49;98022.91;;;10.14;82.75
15932;BME280;8065;49.520;11.284;2023-04-19T02:43:16;98016.31;;;10.12;82.94
15932;BME280;8065;49.520;11.284;2023-04-19T02:45:42;98017.50;;;10.20;82.96
15932;BME280;8065;49.520;11.284;2023-04-19T02:48:10;98012.47;;;10.18;82.45
15932;BME280;8065;49.520;11.284;2023-04-19T02:50:37;98012.47;;;10.18;82.78
15932;BME280;8065;49.520;11.284;2023-04-19T02:53:03;98008.78;;;10.05;83.54
15932;BME280;8065;49.520;11.284;2023-04-19T02:55:31;98013.78;;;10.07;83.30
15932;BME280;8065;49.520;11.284;2023-04-19T02:57:57;98004.53;;;9.82;84.38
15932;BME280;8065;49.520;11.284;2023-04-19T03:00:23;98005.00;;;9.84;83.37
15932;BME280;8065;49.520;11.284;2023-04-19T03:02:50;98000.50;;;9.84;84.28
15932;BME280;8065;49.520;11.284;2023-04-19T03:05:18;98000.06;;;9.91;83.95
15932;BME280;8065;49.520;11.284;2023-04-19T03:07:44;98002.47;;;9.79;83.96
15932;BME280;8065;49.520;11.284;2023-04-19T03:10:11;98004.28;;;9.92;83.14
15932;BME280;8065;49.520;11.284;2023-04-19T03:12:37;97993.38;;;9.94;83.86
15932;BME280;8065;49.520;11.284;2023-04-19T03:15:06;97992.09;;;9.91;83.57
15932;BME280;8065;49.520;11.284;2023-04-19T03:17:33;97995.72;;;9.95;84.05
15932;BME280;8065;49.520;11.284;2023-04-19T03:19:59;97985.13;;;9.95;83.88
15932;BME280;8065;49.520;11.284;2023-04-19T03:22:28;97991.88;;;10.01;83.27
15932;BME280;8065;49.520;11.284;2023-04-19T03:24:54;97976.66;;;9.93;84.38
15932;BME280;8065;49.520;11.284;2023-04-19T03:27:21;97980.41;;;9.92;83.24
15932;BME280;8065;49.520;11.284;2023-04-19T03:29:47;97989.31;;;9.74;83.46
15932;BME280;8065;49.520;11.284;2023-04-19T03:32:14;97988.75;;;9.63;84.21
15932;BME280;8065;49.520;11.284;2023-04-19T03:34:40;97978.53;;;9.57;83.30
15932;BME280;8065;49.520;11.284;2023-04-19T03:37:07;97979.09;;;9.67;83.14
15932;BME280;8065;49.520;11.284;2023-04-19T03:39:34;97978.69;;;9.74;83.10
15932;BME280;8065;49.520;11.284;2023-04-19T03:42:01;97978.47;;;9.84;83.06
15932;BME280;8065;49.520;11.284;2023-04-19T03:44:30;97972.56;;;9.87;83.69
15932;BME280;8065;49.520;11.284;2023-04-19T03:46:56;97979.63;;;9.92;83.00
15932;BME280;8065;49.520;11.284;2023-04-19T03:49:23;97967.81;;;9.98;84.01
15932;BME280;8065;49.520;11.284;2023-04-19T03:51:50;97968.47;;;10.03;83.78
15932;BME280;8065;49.520;11.284;2023-04-19T03:54:16;97962.25;;;10.08;84.14
15932;BME280;8065;49.520;11.284;2023-04-19T03:56:44;97963.63;;;10.05;84.24
15932;BME280;8065;49.520;11.284;2023-04-19T03:59:10;97961.66;;;10.11;84.29
15932;BME280;8065;49.520;11.284;2023-04-19T04:01:37;97960.88;;;10.10;83.62
15932;BME280;8065;49.520;11.284;2023-04-19T04:04:06;97972.50;;;10.01;84.59
15932;BME280;8065;49.520;11.284;2023-04-19T04:06:32;97963.28;;;9.98;84.55
15932;BME280;8065;49.520;11.284;2023-04-19T04:08:59;97967.97;;;10.01;85.16
15932;BME280;8065;49.520;11.284;2023-04-19T04:11:25;97960.31;;;10.00;85.22
15932;BME280;8065;49.520;11.284;2023-04-19T04:13:54;97964.84;;;9.99;85.15
15932;BME280;8065;49.520;11.284;2023-04-19T04:16:21;97966.00;;;10.07;85.61
15932;BME280;8065;49.520;11.284;2023-04-19T04:18:47;97962.38;;;10.03;85.03
15932;BME280;8065;49.520;11.284;2023-04-19T04:21:14;97964.25;;;10.02;85.65
15932;BME280;8065;49.520;11.284;2023-04-19T04:23:40;97965.63;;;10.00;85.44
15932;BME280;8065;49.520;11.284;2023-04-19T04:26:07;97957.84;;;10.03;85.79
15932;BME280;8065;49.520;11.284;2023-04-19T04:28:34;97956.75;;;10.04;85.13
15932;BME280;8065;49.520;11.284;2023-04-19T04:31:02;97955.34;;;10.21;84.52
15932;BME280;8065;49.520;11.284;2023-04-19T04:33:28;97955.69;;;10.28;84.77
15932;BME280;8065;49.520;11.284;2023-04-19T04:35:55;97959.81;;;10.34;84.15
15932;BME280;8065;49.520;11.284;2023-04-19T04:38:22;97955.56;;;10.33;84.24
15932;BME280;8065;49.520;11.284;2023-04-19T04:40:49;97956.06;;;10.35;84.61
15932;BME280;8065;49.520;11.284;2023-04-19T04:43:17;97953.53;;;10.30;84.96
15932;BME280;8065;49.520;11.284;2023-04-19T04:45:45;97953.53;;;10.30;84.73
15932;BME280;8065;49.520;11.284;2023-04-19T04:48:13;97948.22;;;10.30;84.19
15932;BME280;8065;49.520;11.284;2023-04-19T04:50:39;97959.94;;;10.29;84.24
15932;BME280;8065;49.520;11.284;2023-04-19T04:53:06;97958.47;;;10.23;84.39
15932;BME280;8065;49.520;11.284;2023-04-19T04:55:32;97956.44;;;10.20;85.98
15932;BME280;8065;49.520;11.284;2023-04-19T04:57:59;97952.09;;;10.24;85.38
15932;BME280;8065;49.520;11.284;2023-04-19T05:00:25;97951.28;;;10.23;85.95
15932;BME280;8065;49.520;11.284;2023-04-19T05:02:52;97952.56;;;10.26;85.47
15932;BME280;8065;49.520;11.284;2023-04-19T05:05:20;97950.59;;;10.17;86.58
15932;BME280;8065;49.520;11.284;2023-04-19T05:07:46;97948.25;;;10.16;87.41
15932;BME280;8065;49.520;11.284;2023-04-19T05:10:13;97947.47;;;10.15;86.93
15932;BME280;8065;49.520;11.284;2023-04-19T05:12:40;97947.84;;;10.23;86.61
15932;BME280;8065;49.520;11.284;2023-04-19T05:15:07;97954.47;;;10.34;86.44
15932;BME280;8065;49.520;11.284;2023-04-19T05:17:36;97943.56;;;10.35;86.79
15932;BME280;8065;49.520;11.284;2023-04-19T05:20:02;97943.06;;;10.33;86.05
15932;BME280;8065;49.520;11.284;2023-04-19T05:22:31;97942.66;;;10.40;85.78
15932;BME280;8065;49.520;11.284;2023-04-19T05:24:57;97939.22;;;10.48;85.78
15932;BME280;8065;49.520;11.284;2023-04-19T05:27:24;97934.88;;;10.52;85.17
15932;BME280;8065;49.520;11.284;2023-04-19T05:29:50;97936.91;;;10.55;85.17
15932;BME280;8065;49.520;11.284;2023-04-19T05:32:17;97935.56;;;10.66;85.08
15932;BME280;8065;49.520;11.284;2023-04-19T05:34:44;97936.50;;;10.70;85.28
15932;BME280;8065;49.520;11.284;2023-04-19T05:37:11;97928.84;;;10.69;84.79
15932;BME280;8065;49.520;11.284;2023-04-19T05:39:39;97933.84;;;10.70;85.15
15932;BME280;8065;49.520;11.284;2023-04-19T05:42:05;97923.63;;;10.55;86.41
15932;BME280;8065;49.520;11.284;2023-04-19T05:44:32;97918.34;;;10.64;85.92
15932;BME280;8065;49.520;11.284;2023-04-19T05:46:58;97921.81;;;10.73;85.95
15932;BME280;8065;49.520;11.284;2023-04-19T05:49:24;97915.72;;;10.72;86.39
15932;BME280;8065;49.520;11.284;2023-04-19T05:51:51;97920.56;;;10.70;86.23
15932;BME280;8065;49.520;11.284;2023-04-19T05:54:19;97916.94;;;10.66;87.08
15932;BME280;8065;49.520;11.284;2023-04-19T05:56:47;97913.50;;;10.66;87.24
15932;BME280;8065;49.520;11.284;2023-04-19T05:59:13;97918.81;;;10.66;87.58
15932;BME280;8065;49.520;11.284;2023-04-19T06:01:40;97923.06;;;10.67;87.58
15932;BME280;8065;49.520;11.284;2023-04-19T06:04:06;97919.53;;;10.49;87.80
15932;BME280;8065;49.520;11.284;2023-04-19T06:06:33;97921.19;;;10.67;87.65
15932;BME280;8065;49.520;11.284;2023-04-19T06:08:59;97926.38;;;10.81;86.44
15932;BME280;8065;49.520;11.284;2023-04-19T06:11:25;97925.97;;;10.96;86.74
15932;BME280;8065;49.520;11.284;2023-04-19T06:13:53;97927.56;;;11.06;86.11
15932;BME280;8065;49.520;11.284;2023-04-19T06:16:20;97923.97;;;11.10;86.07
15932;BME280;8065;49.520;11.284;2023-04-19T06:18:46;97915.88;;;11.24;85.61
15932;BME280;8065;49.520;11.284;2023-04-19T06:21:13;97915.88;;;11.24;85.35
15932;BME280;8065;49.520;11.284;2023-04-19T06:23:39;97909.91;;;11.27;85.32
15932;BME280;8065;49.520;11.284;2023-04-19T06:26:06;97914.78;;;11.25;84.92
15932;BME280;8065;49.520;11.284;2023-04-19T06:28:32;97910.69;;;11.28;84.85
15932;BME280;8065;49.520;11.284;2023-04-19T06:31:01;97912.72;;;11.31;84.67
15932;BME280;8065;49.520;11.284;2023-04-19T06:33:27;97909.28;;;11.30;84.29
15932;BME280;8065;49.520;11.284;2023-04-19T06:35:54;97906.63;;;11.30;84.72
15932;BME280;8065;49.520;11.284;2023-04-19T06:38:20;97906.78;;;11.34;84.89
15932;BME280;8065;49.520;11.284;2023-04-19T06:40:47;97904.91;;;11.43;84.70
15932;BME280;8065;49.520;11.284;2023-04-19T06:43:13;97909.59;;;11.46;84.95
15932;BME280;8065;49.520;11.284;2023-04-19T06:45:39;97905.38;;;11.54;85.03
15932;BME280;8065;49.520;11.284;2023-04-19T06:48:07;97898.50;;;11.53;84.93
15932;BME280;8065;49.520;11.284;2023-04-19T06:50:34;97901.00;;;11.58;84.88
15932;BME280;8065;49.520;11.284;2023-04-19T06:53:00;97887.06;;;11.61;84.67
15932;BME280;8065;49.520;11.284;2023-04-19T06:55:27;97892.06;;;11.62;84.76
15932;BME280;8065;49.520;11.284;2023-04-19T06:57:54;97900.69;;;11.68;84.89
15932;BME280;8065;49.520;11.284;2023-04-19T07:00:21;97892.22;;;11.66;84.37
15932;BME280;8065;49.520;11.284;2023-04-19T07:02:48;97886.59;;;11.59;85.00
15932;BME280;8065;49.520;11.284;2023-04-19T07:05:16;97884.88;;;11.63;84.91
15932;BME280;8065;49.520;11.284;2023-04-19T07:07:42;97879.72;;;11.58;85.07
15932;BME280;8065;49.520;11.284;2023-04-19T07:10:09;97881.28;;;11.59;84.87
15932;BME280;8065;49.520;11.284;2023-04-19T07:12:37;97874.69;;;11.65;85.05
15932;BME280;8065;49.520;11.284;2023-04-19T07:15:04;97874.22;;;11.63;84.26
15932;BME280;8065;49.520;11.284;2023-04-19T07:17:33;97876.25;;;11.66;84.14
15932;BME280;8065;49.520;11.284;2023-04-19T07:19:59;97874.53;;;11.70;84.22
15932;BME280;8065;49.520;11.284;2023-04-19T07:22:27;97870.78;;;11.71;84.14
15932;BME280;8065;49.520;11.284;2023-04-19T07:24:54;97868.44;;;11.78;84.20
15932;BME280;8065;49.520;11.284;2023-04-19T07:27:20;97866.56;;;11.70;84.76
15932;BME280;8065;49.520;11.284;2023-04-19T07:29:47;97862.50;;;11.81;84.76
15932;BME280;8065;49.520;11.284;2023-04-19T07:32:13;97865.94;;;11.81;85.86
15932;BME280;8065;49.520;11.284;2023-04-19T07:34:40;97870.94;;;11.83;86.34
15932;BME280;8065;49.520;11.284;2023-04-19T07:37:07;97859.03;;;11.89;86.83
15932;BME280;8065;49.520;11.284;2023-04-19T07:39:35;97864.66;;;11.96;86.46
15932;BME280;8065;49.520;11.284;2023-04-19T07:42:02;97867.66;;;11.95;88.18
15932;BME280;8065;49.520;11.284;2023-04-19T07:44:29;97862.75;;;12.05;87.24
15932;BME280;8065;49.520;11.284;2023-04-19T07:46:55;97859.25;;;12.13;87.39
15932;BME280;8065;49.520;11.284;2023-04-19T07:49:22;97856.56;;;12.22;87.15
15932;BME280;8065;49.520;11.284;2023-04-19T07:51:48;97853.59;;;12.24;87.12
15932;BME280;8065;49.520;11.284;2023-04-19T07:54:15;97853.25;;;12.34;86.81
15932;BME280;8065;49.520;11.284;2023-04-19T07:56:45;97854.97;;;12.38;86.24
15932;BME280;8065;49.520;11.284;2023-04-19T07:59:12;97850.41;;;12.39;85.54
15932;BME280;8065;49.520;11.284;2023-04-19T08:01:38;97856.34;;;12.44;85.72
15932;BME280;8065;49.520;11.284;2023-04-19T08:04:05;97856.16;;;12.50;85.11
15932;BME280;8065;49.520;11.284;2023-04-19T08:06:32;97854.13;;;12.46;85.41
15932;BME280;8065;49.520;11.284;2023-04-19T08:08:58;97842.31;;;12.27;85.17
15932;BME280;8065;49.520;11.284;2023-04-19T08:11:25;97846.69;;;12.23;85.46
15932;BME280;8065;49.520;11.284;2023-04-19T08:13:53;97851.69;;;12.33;85.48
15932;BME280;8065;49.520;11.284;2023-04-19T08:16:19;97855.78;;;12.30;85.81
15932;BME280;8065;49.520;11.284;2023-04-19T08:18:46;97849.47;;;12.35;86.61
15932;BME280;8065;49.520;11.284;2023-04-19T08:21:15;97854.81;;;12.35;86.27
15932;BME280;8065;49.520;11.284;2023-04-19T08:23:42;97852.91;;;11.97;86.84
15932;BME280;8065;49.520;11.284;2023-04-19T08:26:08;97853.81;;;12.10;86.79
15932;BME280;8065;49.520;11.284;2023-04-19T08:28:35;97854.47;;;11.98;86.46
15932;BME280;8065;49.520;11.284;2023-04-19T08:31:05;97852.56;;;12.07;86.28
15932;BME280;8065;49.520;11.284;2023-04-19T08:33:32;97862.63;;;12.02;86.30
15932;BME280;8065;49.520;11.284;2023-04-19T08:35:59;97873.06;;;12.15;85.24
15932;BME280;8065;49.520;11.284;2023-04-19T08:38:25;97868.66;;;12.20;84.52
15932;BME280;8065;49.520;11.284;2023-04-19T08:40:53;97865.53;;;12.18;84.30
15932;BME280;8065;49.520;11.284;2023-04-19T08:43:20;97874.84;;;12.03;84.83
15932;BME280;8065;49.520;11.284;2023-04-19T08:45:47;97872.41;;;12.19;84.16
15932;BME280;8065;49.520;11.284;2023-04-19T08:48:16;97876.97;;;12.18;84.08
15932;BME280;8065;49.520;11.284;2023-04-19T08:50:43;97872.94;;;12.12;84.91
15932;BME280;8065;49.520;11.284;2023-04-19T08:53:11;97877.84;;;11.84;83.89
15932;BME280;8065;49.520;11.284;2023-04-19T08:55:40;97880.34;;;11.89;82.88
15932;BME280;8065;49.520;11.284;2023-04-19T08:58:06;97878.16;;;11.91;82.27
15932;BME280;8065;49.520;11.284;2023-04-19T09:00:37;97879.41;;;11.85;82.58
15932;BME280;8065;49.520;11.284;2023-04-19T09:03:05;97883.16;;;11.84;82.30
15932;BME280;8065;49.520;11.284;2023-04-19T09:05:33;97887.69;;;11.23;83.58
15932;BME280;8065;49.520;11.284;2023-04-19T09:08:22;97883.16;;;11.49;83.47
15932;BME280;8065;49.520;11.284;2023-04-19T09:10:54;97881.44;;;11.54;81.90
15932;BME280;8065;49.520;11.284;2023-04-19T09:13:21;97884.56;;;11.21;82.13
15932;BME280;8065;49.520;11.284;2023-04-19T09:15:48;97880.03;;;11.47;80.85
15932;BME280;8065;49.520;11.284;2023-04-19T09:18:15;97878.91;;;11.31;81.13
15932;BME280;8065;49.520;11.284;2023-04-19T09:20:45;97881.13;;;11.55;80.29
15932;BME280;8065;49.520;11.284;2023-04-19T09:23:15;97887.53;;;11.28;80.41
15932;BME280;8065;49.520;11.284;2023-04-19T09:25:51;97882.34;;;10.97;81.29
15932;BME280;8065;49.520;11.284;2023-04-19T09:28:17;97869.06;;;11.40;80.33
15932;BME280;8065;49.520;11.284;2023-04-19T09:30:44;97869.53;;;11.34;79.80
15932;BME280;8065;49.520;11.284;2023-04-19T09:33:11;97875.66;;;11.17;80.30
15932;BME280;8065;49.520;11.284;2023-04-19T09:35:39;97859.81;;;11.38;80.31
15932;BME280;8065;49.520;11.284;2023-04-19T09:38:07;97861.56;;;11.60;79.31
15932;BME280;8065;49.520;11.284;2023-04-19T09:40:35;97854.50;;;11.38;79.77
15932;BME280;8065;49.520;11.284;2023-04-19T09:43:01;97857.31;;;11.59;79.47
15932;BME280;8065;49.520;11.284;2023-04-19T09:45:38;97848.09;;;11.47;78.83
15932;BME280;8065;49.520;11.284;2023-04-19T09:48:06;97853.41;;;11.82;78.42
15932;BME280;8065;49.520;11.284;2023-04-19T09:50:33;97841.78;;;11.95;78.28
15932;BME280;8065;49.520;11.284;2023-04-19T09:52:59;97845.38;;;11.99;76.86
15932;BME280;8065;49.520;11.284;2023-04-19T09:55:29;97840.03;;;12.46;75.85
15932;BME280;8065;49.520;11.284;2023-04-19T09:57:55;97838.47;;;12.45;75.97
15932;BME280;8065;49.520;11.284;2023-04-19T10:00:22;97841.97;;;12.96;75.58
15932;BME280;8065;49.520;11.284;2023-04-19T10:02:50;97829.16;;;13.31;75.84
15932;BME280;8065;49.520;11.284;2023-04-19T10:05:22;97831.97;;;13.34;72.90
15932;BME280;8065;49.520;11.284;2023-04-19T10:07:49;97837.16;;;13.52;71.49
15932;BME280;8065;49.520;11.284;2023-04-19T10:10:16;97842.63;;;13.55;72.91
15932;BME280;8065;49.520;11.284;2023-04-19T10:12:47;97834.56;;;13.43;71.48
15932;BME280;8065;49.520;11.284;2023-04-19T10:15:15;97827.84;;;13.58;70.38
15932;BME280;8065;49.520;11.284;2023-04-19T10:17:42;97812.94;;;13.15;69.62
15932;BME280;8065;49.520;11.284;2023-04-19T10:20:15;97813.25;;;13.55;69.88
15932;BME280;8065;49.520;11.284;2023-04-19T10:22:43;97818.97;;;13.66;70.59
15932;BME280;8065;49.520;11.284;2023-04-19T10:25:11;97807.28;;;13.70;68.59
15932;BME280;8065;49.520;11.284;2023-04-19T10:27:39;97804.28;;;13.72;67.96
15932;BME280;8065;49.520;11.284;2023-04-19T10:30:17;97800.25;;;14.35;68.47
15932;BME280;8065;49.520;11.284;2023-04-19T10:32:45;97800.50;;;14.42;67.36
15932;BME280;8065;49.520;11.284;2023-04-19T10:35:20;97787.00;;;14.27;65.13
15932;BME280;8065;49.520;11.284;2023-04-19T10:38:04;97796.97;;;14.91;64.19
15932;BME280;8065;49.520;11.284;2023-04-19T10:40:57;97776.16;;;15.24;65.38
15932;BME280;8065;49.520;11.284;2023-04-19T10:43:29;97773.31;;;15.61;62.92
15932;BME280;8065;49.520;11.284;2023-04-19T10:46:05;97764.44;;;15.72;62.08
15932;BME280;8065;49.520;11.284;2023-04-19T10:48:40;97769.88;;;15.76;60.71
15932;BME280;8065;49.520;11.284;2023-04-19T10:51:13;97761.78;;;16.04;59.34
15932;BME280;8065;49.520;11.284;2023-04-19T10:53:48;97752.25;;;16.22;58.48
15932;BME280;8065;49.520;11.284;2023-04-19T10:56:16;97766.78;;;16.05;57.48
15932;BME280;8065;49.520;11.284;2023-04-19T10:59:14;97745.63;;;16.00;56.90
15932;BME280;8065;49.520;11.284;2023-04-19T11:01:49;97754.09;;;16.02;57.48
15932;BME280;8065;49.520;11.284;2023-04-19T11:04:18;97748.72;;;16.02;56.08
15932;BME280;8065;49.520;11.284;2023-04-19T11:06:59;97744.22;;;16.22;55.33
15932;BME280;8065;49.520;11.284;2023-04-19T11:09:29;97741.03;;;15.85;54.64
15932;BME280;8065;49.520;11.284;2023-04-19T11:11:58;97732.47;;;15.80;55.40
15932;BME280;8065;49.520;11.284;2023-04-19T11:14:28;97731.13;;;16.36;53.77
15932;BME280;8065;49.520;11.284;2023-04-19T11:16:57;97730.78;;;16.38;54.74
15932;BME280;8065;49.520;11.284;2023-04-19T11:19:23;97733.63;;;16.99;52.84
15932;BME280;8065;49.520;11.284;2023-04-19T11:21:50;97724.75;;;17.15;52.87
15932;BME280;8065;49.520;11.284;2023-04-19T11:24:17;97732.88;;;17.41;52.03
15932;BME280;8065;49.520;11.284;2023-04-19T11:26:45;97729.84;;;17.43;51.07
15932;BME280;8065;49.520;11.284;2023-04-19T11:29:11;97727.44;;;17.37;51.70
15932;BME280;8065;49.520;11.284;2023-04-19T11:31:38;97716.13;;;17.25;50.59
15932;BME280;8065;49.520;11.284;2023-04-19T11:34:06;97714.69;;;16.38;51.34
15932;BME280;8065;49.520;11.284;2023-04-19T11:36:33;97708.84;;;17.06;51.12
15932;BME280;8065;49.520;11.284;2023-04-19T11:39:01;97717.09;;;17.17;51.73
15932;BME280;8065;49.520;11.284;2023-04-19T11:41:36;97708.13;;;17.28;51.69
15932;BME280;8065;49.520;11.284;2023-04-19T11:44:03;97709.41;;;16.96;51.45
15932;BME280;8065;49.520;11.284;2023-04-19T11:46:30;97709.53;;;16.84;50.44
15932;BME280;8065;49.520;11.284;2023-04-19T11:48:56;97708.78;;;17.02;51.35
15932;BME280;8065;49.520;11.284;2023-04-19T11:51:25;97699.38;;;17.12;51.71
15932;BME280;8065;49.520;11.284;2023-04-19T11:53:51;97703.41;;;16.48;51.98
15932;BME280;8065;49.520;11.284;2023-04-19T11:56:18;97696.41;;;16.79;52.02
15932;BME280;8065;49.520;11.284;2023-04-19T11:58:45;97703.81;;;16.50;51.72
15932;BME280;8065;49.520;11.284;2023-04-19T12:01:14;97691.38;;;16.77;51.72
15932;BME280;8065;49.520;11.284;2023-04-19T12:03:44;97691.53;;;17.03;50.36
15932;BME280;8065;49.520;11.284;2023-04-19T12:06:12;97695.34;;;17.45;49.04
15932;BME280;8065;49.520;11.284;2023-04-19T12:08:42;97691.31;;;17.77;48.24
15932;BME280;8065;49.520;11.284;2023-04-19T12:11:09;97695.63;;;17.40;49.00
15932;BME280;8065;49.520;11.284;2023-04-19T12:13:36;97695.47;;;17.52;47.52
15932;BME280;8065;49.520;11.284;2023-04-19T12:16:03;97687.56;;;17.40;48.66
15932;BME280;8065;49.520;11.284;2023-04-19T12:18:44;97682.22;;;17.62;48.05
15932;BME280;8065;49.520;11.284;2023-04-19T12:21:26;97688.28;;;17.36;45.66
15932;BME280;8065;49.520;11.284;2023-04-19T12:23:55;97679.72;;;17.96;44.57
15932;BME280;8065;49.520;11.284;2023-04-19T12:26:25;97673.31;;;18.04;44.31
15932;BME280;8065;49.520;11.284;2023-04-19T12:28:52;97667.94;;;18.04;44.44
15932;BME280;8065;49.520;11.284;2023-04-19T12:31:19;97679.06;;;18.02;43.55
15932;BME280;8065;49.520;11.284;2023-04-19T12:33:46;97668.59;;;17.97;43.47
15932;BME280;8065;49.520;11.284;2023-04-19T12:36:12;97661.16;;;18.14;42.52
15932;BME280;8065;49.520;11.284;2023-04-19T12:38:39;97669.09;;;17.80;41.47
15932;BME280;8065;49.520;11.284;2023-04-19T12:41:07;97668.72;;;18.05;40.47
15932;BME280;8065;49.520;11.284;2023-04-19T12:43:34;97685.09;;;17.73;41.26
15932;BME280;8065;49.520;11.284;2023-04-19T12:46:00;97676.03;;;17.81;39.68
15932;BME280;8065;49.520;11.284;2023-04-19T12:48:42;97669.72;;;17.51;38.81
15932;BME280;8065;49.520;11.284;2023-04-19T12:51:09;97676.69;;;17.75;41.52
15932;BME280;8065;49.520;11.284;2023-04-19T12:53:35;97676.97;;;17.92;40.70
15932;BME280;8065;49.520;11.284;2023-04-19T12:56:01;97669.44;;;18.01;41.27
15932;BME280;8065;49.520;11.284;2023-04-19T12:58:28;97676.88;;;18.12;39.55
15932;BME280;8065;49.520;11.284;2023-04-19T13:00:56;97671.09;;;18.10;38.63
15932;BME280;8065;49.520;11.284;2023-04-19T13:03:22;97664.44;;;18.30;38.55